Latest Weather Observations for Lombadina

IDW60801

Issued at 6:05 pm WST Thursday 21 August 2014 (issued every 30 minutes, with the page automatically refreshed every 10 minutes)

About weather observations | Map of weather stations | Latest weather observations for WA | Other Formats
Station Details ID: 503016 Name: LOMBADINA AIRSTRIP Lat: -16.52 Lon: 122.92 Height: 42.0 m
Data from the previous 72 hours. | See also: Recent months for locations in Western Australia
Date/Time
WST
Temp
°C
App
Temp
°C
Dew
Point
Rel
Hum
%
Delta-T
°C
Wind Press
QNH
hPa
Press
MSL
hPa
Rain
since 9 am
mm
Dir
 
Spd
km/h
Gust
km/h
Spd
kts
Gust
kts
21/06:00pm 21.0 21.4 12.4 58 4.9 NNW 2 4 1 2 1014.3 1014.1 0.0
21/05:30pm 23.9 23.4 12.2 48 6.7 NNW 6 9 3 5 1014.2 1014.0 0.0
21/05:00pm 25.7 24.5 9.5 36 8.9 NNW 6 11 3 6 1014.1 1013.9 0.0
21/04:30pm 26.8 25.8 11.0 37 9.0 NW 7 11 4 6 1013.8 1013.6 0.0
21/04:00pm 26.8 25.2 11.4 38 8.8 NW 11 15 6 8 1013.5 1013.3 0.0
21/03:30pm 28.0 25.9 8.1 28 10.8 NW 9 17 5 9 1013.3 1013.1 0.0
21/03:00pm 28.2 25.8 8.5 29 10.8 NW 11 20 6 11 1013.4 1013.2 0.0
21/02:30pm 28.3 24.7 5.1 23 12.0 NW 13 19 7 10 1013.4 1013.2 0.0
21/02:00pm 29.2 25.6 3.2 19 13.1 NW 11 19 6 10 1013.6 1013.4 0.0
21/01:30pm 29.1 25.5 5.2 22 12.4 NW 13 20 7 11 1013.8 1013.6 0.0
21/01:00pm 28.4 25.4 7.6 27 11.2 NW 13 17 7 9 1014.0 1013.8 0.0
21/12:30pm 28.0 26.0 10.3 33 10.0 NW 11 17 6 9 1014.4 1014.2 0.0
21/12:00pm 28.0 26.7 10.1 32 10.0 N 7 13 4 7 1015.0 1014.8 0.0
21/11:30am 28.6 26.7 6.6 25 11.7 NE 6 13 3 7 1015.4 1015.2 0.0
21/11:00am 28.2 25.8 4.5 22 12.1 NE 6 11 3 6 1015.7 1015.5 0.0
21/10:30am 27.8 25.3 4.7 23 11.8 E 7 13 4 7 1016.0 1015.8 0.0
21/10:00am 26.5 23.9 4.4 24 11.1 ESE 7 11 4 6 1016.4 1016.2 0.0
21/09:30am 25.7 23.2 4.8 26 10.6 ESE 7 13 4 7 1016.4 1016.2 0.0
21/09:00am 24.9 23.0 7.6 33 9.1 ESE 7 11 4 6 1016.5 1016.3 -
21/08:30am 23.7 22.3 9.4 40 7.8 ESE 7 11 4 6 1016.4 1016.2 -
21/08:00am 21.9 19.9 7.3 39 7.5 ESE 7 13 4 7 1016.3 1016.1 -
21/07:30am 20.7 18.7 6.2 39 7.3 ESE 6 9 3 5 1016.0 1015.8 -
21/07:00am 17.8 16.7 9.9 60 4.2 SE 6 7 3 4 1015.6 1015.4 -
21/06:30am 14.7 13.6 9.9 73 2.5 SE 6 7 3 4 1015.2 1015.0 -
21/06:00am 14.2 13.1 10.1 76 2.1 SE 6 7 3 4 1014.9 1014.7 -
21/05:30am 14.1 13.6 12.1 88 1.1 S 6 7 3 4 1014.5 1014.3 -
21/05:00am 14.8 15.0 11.7 82 1.7 SSE 2 6 1 3 1014.3 1014.1 -
21/04:30am 17.3 17.2 13.2 77 2.3 SSE 6 9 3 5 1014.3 1014.1 -
21/04:00am 15.9 15.5 12.5 80 1.9 S 6 7 3 4 1014.1 1013.9 -
21/03:30am 16.0 15.8 12.9 82 1.7 S 6 9 3 5 1014.0 1013.8 -
21/03:00am 15.2 15.4 14.1 93 0.6 SW 6 9 3 5 1014.1 1013.9 0.0
21/02:30am 15.0 15.2 14.1 94 0.5 SW 6 9 3 5 1014.3 1014.1 -
21/02:00am 15.2 15.4 14.3 94 0.5 SW 6 7 3 4 1014.4 1014.2 -
21/01:30am 15.8 16.7 15.0 95 0.5 SW 4 7 2 4 1014.5 1014.3 -
21/01:00am 16.2 16.8 15.3 94 0.5 SSW 6 7 3 4 1014.7 1014.5 -
21/12:30am 16.8 18.1 16.2 96 0.4 SW 4 7 2 4 1014.7 1014.5 -
21/12:00am 17.6 18.8 16.8 95 0.5 SW 6 7 3 4 1014.8 1014.6 -
 
Date/Time
WST
Temp
°C
App
Temp
°C
Dew
Point
Rel
Hum
%
Delta-T
°C
Wind Press
QNH
hPa
Press
MSL
hPa
Rain
since 9 am
mm
Dir
 
Spd
km/h
Gust
km/h
Spd
kts
Gust
kts
20/11:50pm 17.5 18.7 16.9 96 0.4 SW 6 9 3 5 1015.0 1014.8 -
20/11:38pm 17.6 18.8 16.9 96 0.4 SW 6 9 3 5 1015.1 1014.9 -
20/11:30pm 17.2 18.5 16.1 93 0.7 SW 4 7 2 4 1015.1 1014.9 -
20/11:00pm 17.1 18.8 16.2 94 0.5 WSW 2 6 1 3 1015.2 1015.0 -
20/10:30pm 17.6 19.0 16.5 93 0.7 W 4 7 2 4 1015.3 1015.1 -
20/10:00pm 17.0 18.1 15.6 91 0.8 W 4 7 2 4 1015.3 1015.1 -
20/09:30pm 17.3 18.5 15.9 91 0.8 W 4 6 2 3 1015.4 1015.2 -
20/09:00pm 17.5 18.5 15.4 87 1.2 WNW 4 6 2 3 1015.4 1015.2 0.0
20/08:30pm 18.4 19.3 16.0 86 1.4 NW 6 7 3 4 1015.3 1015.1 -
20/08:00pm 19.9 20.9 16.9 83 1.8 NNW 7 9 4 5 1015.1 1014.9 -
20/07:30pm 19.4 21.0 16.9 85 1.5 NNW 4 6 2 3 1014.9 1014.7 -
20/07:00pm 20.9 22.4 18.0 83 1.8 NNW 7 9 4 5 1014.7 1014.5 -
20/06:30pm 20.3 22.4 17.2 82 1.9 NW 2 7 1 4 1014.5 1014.3 -
20/06:00pm 21.8 23.2 16.5 72 3.2 NW 4 7 2 4 1014.4 1014.2 -
20/05:30pm 23.3 24.4 16.7 66 4.0 NW 6 7 3 4 1014.2 1014.0 -
20/05:00pm 24.5 25.1 16.7 61 4.8 NW 9 13 5 7 1014.1 1013.9 -
20/04:30pm 24.8 25.4 16.9 61 4.9 NW 9 15 5 8 1014.1 1013.9 -
20/04:00pm 25.7 26.2 16.6 57 5.6 NW 9 15 5 8 1014.0 1013.8 -
20/03:30pm 26.5 26.4 15.9 52 6.5 NNW 11 15 6 8 1013.8 1013.6 -
20/03:00pm 27.3 27.8 15.5 48 7.2 NW 7 15 4 8 1013.6 1013.4 -
20/02:30pm 29.7 26.8 1.3 16 13.9 ESE 6 11 3 6 1013.6 1013.4 -
20/02:00pm 29.2 26.2 1.7 17 13.5 ESE 7 13 4 7 1013.7 1013.5 -
20/01:30pm 29.1 25.9 3.3 19 13.0 ESE 9 15 5 8 1013.9 1013.7 -
20/01:00pm 28.9 25.3 0.5 16 13.6 ESE 9 15 5 8 1014.4 1014.2 -
20/12:30pm 29.3 27.2 6.7 24 12.1 SE 7 15 4 8 1014.9 1014.7 -
20/12:00pm 26.7 24.5 7.7 30 10.2 ESE 9 17 5 9 1015.5 1015.3 -
20/11:30am 26.3 24.5 9.6 35 9.2 ESE 9 17 5 9 1016.0 1015.8 0.0
20/11:00am 26.5 24.1 6.8 28 10.4 ESE 9 17 5 9 1016.4 1016.2 0.0
20/10:30am 25.7 22.9 6.9 30 9.9 ESE 11 19 6 10 1016.6 1016.4 0.0
20/10:00am 25.5 23.7 8.1 33 9.3 SE 7 15 4 8 1016.8 1016.6 0.0
20/09:30am 24.9 22.9 7.3 32 9.3 SE 7 13 4 7 1016.9 1016.7 0.0
20/09:00am 23.8 22.1 8.4 37 8.2 SE 7 13 4 7 1016.9 1016.7 0.0
20/08:30am 22.3 20.9 9.7 44 6.8 SE 7 15 4 8 1016.9 - 0.0
20/08:00am 20.9 21.4 14.9 68 3.5 SE 6 11 3 6 1016.6 1016.4 0.0
20/07:30am 19.8 20.9 16.6 82 1.9 SE 6 9 3 5 1016.4 - 0.0
20/07:00am 17.9 18.5 15.2 84 1.6 SE 6 11 3 6 1016.2 1016.0 0.0
20/06:30am 16.2 16.8 15.3 94 0.5 SE 6 9 3 5 1015.9 - 0.0
20/06:00am 15.4 15.8 14.8 96 0.3 SE 6 9 3 5 1015.6 1015.4 0.0
20/05:30am 14.9 15.1 14.2 96 0.4 S 6 7 3 4 1015.5 - 0.0
20/05:00am 15.9 16.5 15.3 96 0.3 S 6 9 3 5 1015.3 1015.1 0.0
20/04:30am 16.3 17.0 15.6 96 0.4 SSW 6 9 3 5 1015.1 - 0.0
20/04:00am 16.7 17.6 16.1 96 0.4 SSW 6 9 3 5 1014.8 1014.6 0.0
20/03:41am 17.0 17.8 16.3 96 0.4 SSW 7 11 4 6 1014.8 - 0.0
20/03:30am 16.8 17.8 16.3 97 0.3 SSW 6 11 3 6 1014.8 - 0.0
20/03:00am 17.0 18.0 16.4 96 0.4 SW 6 7 3 4 1014.8 1014.6 0.0
20/02:30am 16.2 16.8 15.2 94 0.6 SSW 6 7 3 4 1014.9 - 0.0
20/02:00am 15.8 16.7 15.1 96 0.4 SSW 4 7 2 4 1015.0 1014.8 0.0
20/01:30am 15.9 16.8 15.0 94 0.5 SSW 4 6 2 3 1015.2 - 0.0
20/01:00am 15.7 16.8 14.6 93 0.6 SSW 2 4 1 2 1015.5 1015.3 0.0
20/12:59am 15.6 16.7 14.6 94 0.6 SSW 2 4 1 2 1015.5 - 0.0
20/12:30am 15.8 16.6 14.8 94 0.6 WSW 4 7 2 4 1015.6 - 0.0
20/12:00am 15.8 16.6 14.8 94 0.6 WSW 4 7 2 4 1015.9 1015.7 0.0
 
Date/Time
WST
Temp
°C
App
Temp
°C
Dew
Point
Rel
Hum
%
Delta-T
°C
Wind Press
QNH
hPa
Press
MSL
hPa
Rain
since 9 am
mm
Dir
 
Spd
km/h
Gust
km/h
Spd
kts
Gust
kts
19/11:30pm 16.8 17.4 15.3 91 0.9 WSW 6 7 3 4 1016.2 - 0.0
19/11:00pm 16.8 17.3 15.0 89 1.0 WSW 6 7 3 4 1016.4 1016.2 0.0
19/10:30pm 18.1 18.8 15.7 86 1.4 WSW 6 7 3 4 1016.7 - 0.0
19/10:00pm 18.9 19.7 16.3 85 1.6 WSW 7 9 4 5 1016.8 1016.6 0.0
19/09:30pm 17.8 18.8 16.3 91 0.9 WSW 6 7 3 4 1016.8 - 0.0
19/09:00pm 17.0 17.5 14.9 87 1.2 WSW 6 9 3 5 1016.8 1016.6 0.0
19/08:30pm 16.7 17.2 14.0 84 1.5 WSW 4 7 2 4 1016.7 - 0.0
19/08:00pm 17.2 17.7 14.0 81 1.8 WSW 4 7 2 4 1016.7 1016.5 0.0
19/07:30pm 18.2 18.6 13.6 74 2.6 W 4 6 2 3 1016.4 - 0.0
19/07:00pm 20.5 21.2 15.6 73 2.9 NNW 6 9 3 5 1015.8 1015.6 0.0
19/06:30pm 20.2 20.3 14.0 67 3.6 NNW 6 7 3 4 1015.5 - 0.0
19/06:00pm 21.0 21.4 13.7 63 4.2 NNW 4 6 2 3 1015.4 1015.2 0.0
19/05:30pm 22.9 23.0 12.8 53 5.8 WNW 4 7 2 4 1015.1 - 0.0
19/05:00pm 24.3 23.4 11.3 44 7.3 WNW 7 11 4 6 1014.9 1014.7 0.0
19/04:30pm 24.5 22.9 11.5 44 7.3 NW 11 19 6 10 1014.7 - 0.0
19/04:00pm 25.2 23.8 12.1 44 7.5 NW 11 19 6 10 1014.4 1014.2 0.0
19/03:30pm 25.5 23.9 11.6 41 7.9 NNW 11 17 6 9 1014.3 - 0.0
19/03:00pm 26.1 24.6 10.5 37 8.7 NW 9 15 5 8 1014.9 1014.7 0.0
19/02:30pm 25.7 23.3 8.6 33 9.3 WNW 11 17 6 9 1015.0 - 0.0
19/02:00pm 25.9 24.1 10.7 38 8.5 NW 11 19 6 10 1015.1 1014.9 0.0
19/01:30pm 26.2 23.9 10.3 36 8.9 NW 13 19 7 10 1015.2 - 0.0
19/01:00pm 26.1 23.7 8.5 32 9.5 NW 11 17 6 9 1015.5 1015.3 0.0
19/12:30pm 26.1 23.9 9.4 35 9.2 NW 11 17 6 9 1015.8 - 0.0
19/12:00pm 26.5 24.4 9.8 35 9.3 NW 11 20 6 11 1016.3 1016.1 0.0
19/11:30am 26.4 26.2 13.0 43 7.8 E 6 13 3 7 1016.8 - 0.0
19/11:00am 26.4 26.0 11.1 38 8.7 NE 4 11 2 6 1017.2 1017.0 0.0
19/10:30am 26.1 25.4 11.5 40 8.3 SE 6 9 3 5 1017.5 - 0.0
19/10:00am 25.2 25.4 12.9 46 7.1 S 4 11 2 6 1018.0 1017.8 0.0
19/09:30am 24.5 24.6 12.6 47 6.9 ESE 4 11 2 6 1018.2 - 0.0
19/09:00am 23.1 23.8 15.5 62 4.6 ESE 6 9 3 5 1018.3 1018.1 0.0
19/08:30am 22.4 23.5 16.6 69 3.5 ESE 6 9 3 5 1018.3 - 0.0
19/08:00am 20.9 21.9 16.4 75 2.7 ESE 6 9 3 5 1018.3 1018.1 0.0
19/07:30am 19.0 20.2 16.8 87 1.3 ESE 6 9 3 5 1018.2 - 0.0
19/07:00am 17.0 18.0 16.4 96 0.4 ESE 6 9 3 5 1018.2 1018.0 0.0
19/06:30am 15.4 15.9 14.9 97 0.3 SE 6 7 3 4 1017.9 - 0.0
19/06:00am 14.6 14.8 14.1 97 0.3 SSE 6 7 3 4 1017.5 1017.3 0.0
19/05:30am 15.4 15.7 14.6 95 0.5 SE 6 7 3 4 1017.2 - 0.0
19/05:12am 15.4 15.7 14.6 95 0.5 SE 6 9 3 5 1017.1 - 0.0
19/05:00am 15.0 15.7 14.4 96 0.3 SE 4 7 2 4 1017.0 1016.8 0.0
19/04:53am 14.7 15.1 13.8 94 0.5 SE 4 6 2 3 1016.9 - 0.0
19/04:30am 15.8 16.7 15.1 96 0.4 ESE 4 9 2 5 1016.7 - 0.0
19/04:15am 15.9 16.5 15.4 97 0.3 S 6 7 3 4 1016.7 - 0.0
19/04:00am 15.8 16.4 15.2 96 0.3 SSW 6 7 3 4 1016.5 1016.3 0.0
19/03:30am 15.2 15.9 14.5 96 0.4 SW 4 6 2 3 1016.4 - 0.0
19/03:00am 15.5 16.3 14.9 96 0.3 SW 4 6 2 3 1016.4 1016.2 0.0
19/02:30am 15.8 16.7 15.1 96 0.4 WSW 4 6 2 3 1016.6 - 0.0
19/02:12am 16.0 16.9 15.1 94 0.5 SW 4 7 2 4 1016.7 - 0.0
19/02:00am 16.3 17.0 15.5 95 0.5 SW 6 9 3 5 1016.6 1016.4 0.0
19/01:30am 16.0 16.8 14.9 93 0.6 SW 4 6 2 3 1016.7 - 0.0
19/01:00am 15.9 16.4 14.9 94 0.6 WSW 6 7 3 4 1016.8 1016.6 0.0
19/12:30am 15.7 16.5 14.7 94 0.6 WSW 4 7 2 4 1017.0 - 0.0
19/12:00am 16.1 17.0 15.0 93 0.6 W 4 6 2 3 1017.1 1016.9 0.0
 
Date/Time
WST
Temp
°C
App
Temp
°C
Dew
Point
Rel
Hum
%
Delta-T
°C
Wind Press
QNH
hPa
Press
MSL
hPa
Rain
since 9 am
mm
Dir
 
Spd
km/h
Gust
km/h
Spd
kts
Gust
kts
18/11:30pm 15.7 16.4 14.4 92 0.7 W 4 6 2 3 1017.3 - 0.0
18/11:00pm 15.0 14.9 13.4 90 0.9 WSW 6 7 3 4 1017.7 1017.5 0.0
18/10:30pm 15.9 16.3 14.7 93 0.7 WNW 6 7 3 4 1017.6 - 0.0
18/10:00pm 16.1 16.8 14.5 90 0.9 WNW 4 6 2 3 1017.5 1017.3 0.0
18/09:30pm 16.5 17.0 14.1 86 1.4 NNW 4 7 2 4 1017.3 - 0.0
18/09:00pm 15.8 16.2 13.8 88 1.1 NW 4 6 2 3 1017.6 1017.4 0.0
18/08:30pm 16.2 16.7 14.1 87 1.2 N 4 4 2 2 1017.5 - 0.0
18/08:00pm 16.6 16.8 13.0 79 2.0 N 4 6 2 3 1017.2 1017.0 0.0
18/07:30pm 17.0 16.5 10.6 66 3.4 N 4 6 2 3 1017.0 - 0.0
18/07:00pm 17.1 15.4 6.1 48 5.4 N 4 6 2 3 1016.7 1016.5 0.0
18/06:30pm 17.7 15.9 5.6 45 5.9 N 4 6 2 3 1016.4 - 0.0

Other Formats:

Comma delimited format used in spreadsheet applications
http://www.bom.gov.au/fwo/IDW60801/IDW60801.99206.axf

JavaScript Object Notation format (JSON) in row-major order
http://www.bom.gov.au/fwo/IDW60801/IDW60801.99206.json